createdAt,value
2018-11-12T00:01:28.431Z,16.80
2018-11-12T00:03:56.776Z,16.93
2018-11-12T00:06:25.111Z,16.67
2018-11-12T00:08:53.425Z,16.60
2018-11-12T00:11:21.812Z,17.02
2018-11-12T00:13:50.183Z,16.84
2018-11-12T00:16:18.528Z,16.42
2018-11-12T00:18:46.856Z,16.72
2018-11-12T00:21:15.129Z,16.87
2018-11-12T00:23:43.537Z,16.56
2018-11-12T00:26:11.835Z,16.57
2018-11-12T00:28:40.122Z,16.73
2018-11-12T00:31:08.417Z,16.62
2018-11-12T00:33:36.679Z,16.54
2018-11-12T00:36:05.056Z,16.79
2018-11-12T00:38:33.379Z,16.93
2018-11-12T00:41:02.851Z,16.83
2018-11-12T00:43:31.161Z,16.75
2018-11-12T00:45:59.458Z,16.73
2018-11-12T00:48:27.929Z,17.10
2018-11-12T00:50:56.335Z,17.06
2018-11-12T00:53:24.775Z,16.86
2018-11-12T00:55:53.126Z,16.98
2018-11-12T00:58:21.492Z,17.13
2018-11-12T01:00:49.849Z,16.73
2018-11-12T01:03:18.170Z,17.15
2018-11-12T01:05:46.504Z,17.27
2018-11-12T01:08:14.787Z,17.22
2018-11-12T01:10:43.128Z,17.28
2018-11-12T01:13:11.521Z,17.09
2018-11-12T01:15:39.865Z,17.07
2018-11-12T01:18:08.190Z,17.20
2018-11-12T01:20:36.581Z,17.03
2018-11-12T01:23:05.267Z,16.73
2018-11-12T01:25:34.156Z,16.89
2018-11-12T01:28:02.554Z,17.00
2018-11-12T01:30:30.849Z,17.11
2018-11-12T01:32:59.211Z,16.74
2018-11-12T01:35:28.027Z,16.92
2018-11-12T01:37:56.488Z,17.07
2018-11-12T01:40:24.849Z,16.85
2018-11-12T01:42:53.274Z,16.57
2018-11-12T01:45:21.658Z,16.63
2018-11-12T01:47:50.811Z,16.48
2018-11-12T01:50:19.787Z,16.32
2018-11-12T01:52:48.853Z,16.83
2018-11-12T01:55:18.306Z,16.37
2018-11-12T01:57:46.817Z,16.85
2018-11-12T02:00:17.341Z,16.97
2018-11-12T02:02:47.877Z,16.54
2018-11-12T02:05:16.529Z,16.22
2018-11-12T02:07:44.905Z,16.30
2018-11-12T02:10:14.309Z,16.66
2018-11-12T02:12:42.935Z,16.79
2018-11-12T02:15:15.366Z,16.95
2018-11-12T02:17:44.833Z,16.96
2018-11-12T02:20:14.275Z,16.36
2018-11-12T02:22:43.575Z,16.40
2018-11-12T02:25:12.574Z,16.37
2018-11-12T02:27:41.358Z,16.58
2018-11-12T02:30:22.600Z,16.23
2018-11-12T02:32:50.928Z,16.10
2018-11-12T02:35:19.339Z,16.11
2018-11-12T02:37:47.742Z,16.38
2018-11-12T02:40:16.058Z,16.14
2018-11-12T02:42:44.555Z,16.12
2018-11-12T02:45:13.831Z,16.10
2018-11-12T02:47:43.135Z,15.92
2018-11-12T02:50:14.325Z,15.97
2018-11-12T02:52:42.835Z,15.87
2018-11-12T02:55:15.859Z,15.90
2018-11-12T02:57:45.072Z,15.68
2018-11-12T03:00:17.673Z,15.66
2018-11-12T03:02:46.255Z,15.77
2018-11-12T03:05:14.682Z,16.04
2018-11-12T03:07:43.449Z,16.19
2018-11-12T03:10:14.760Z,16.19
2018-11-12T03:12:43.255Z,16.20
2018-11-12T03:15:12.739Z,16.49
2018-11-12T03:17:41.780Z,16.29
2018-11-12T03:20:12.295Z,16.04
2018-11-12T03:22:40.708Z,15.89
2018-11-12T03:25:10.751Z,15.96
2018-11-12T03:27:39.501Z,15.90
2018-11-12T03:30:09.591Z,16.17
2018-11-12T03:32:38.204Z,16.29
2018-11-12T03:35:07.376Z,16.27
2018-11-12T03:37:35.816Z,16.43
2018-11-12T03:40:04.259Z,15.86
2018-11-12T03:42:32.656Z,15.73
2018-11-12T03:45:00.933Z,15.86
2018-11-12T03:47:29.229Z,15.69
2018-11-12T03:49:57.588Z,15.90
2018-11-12T03:52:25.906Z,15.90
2018-11-12T03:54:54.261Z,16.10
2018-11-12T03:57:22.624Z,15.91
2018-11-12T03:59:51.005Z,16.23
2018-11-12T04:02:19.368Z,16.38
2018-11-12T04:04:47.719Z,16.06
2018-11-12T04:07:16.078Z,16.48
2018-11-12T04:09:44.427Z,16.30
2018-11-12T04:12:12.830Z,16.22
2018-11-12T04:14:41.179Z,16.28
2018-11-12T04:17:09.552Z,16.41
2018-11-12T04:19:37.868Z,16.23
2018-11-12T04:22:06.282Z,16.03
2018-11-12T04:24:34.711Z,15.91
2018-11-12T04:27:03.170Z,16.59
2018-11-12T04:29:31.527Z,16.35
2018-11-12T04:31:59.884Z,16.39
2018-11-12T04:34:28.355Z,16.00
2018-11-12T04:36:56.868Z,16.00
2018-11-12T04:39:25.150Z,16.20
2018-11-12T04:41:53.535Z,16.26
2018-11-12T04:44:22.162Z,16.31
2018-11-12T04:46:50.518Z,16.24
2018-11-12T04:49:18.847Z,15.89
2018-11-12T04:51:47.175Z,15.83
2018-11-12T04:54:15.519Z,16.40
2018-11-12T04:56:43.808Z,16.42
2018-11-12T04:59:12.218Z,16.43
2018-11-12T05:01:40.533Z,16.38
2018-11-12T05:04:08.829Z,16.10
2018-11-12T05:06:37.184Z,16.38
2018-11-12T05:09:07.854Z,16.11
2018-11-12T05:11:36.199Z,16.20
2018-11-12T05:14:04.586Z,16.72
2018-11-12T05:16:32.962Z,16.54
2018-11-12T05:19:01.252Z,16.44
2018-11-12T05:21:29.583Z,16.18
2018-11-12T05:23:57.930Z,16.47
2018-11-12T05:26:26.243Z,16.50
2018-11-12T05:28:54.470Z,16.21
2018-11-12T05:31:22.800Z,15.86
2018-11-12T05:33:51.094Z,16.21
2018-11-12T05:36:19.364Z,16.36
2018-11-12T05:38:47.678Z,16.55
2018-11-12T05:41:16.003Z,16.61
2018-11-12T05:43:44.330Z,16.92
2018-11-12T05:46:12.680Z,16.75
2018-11-12T05:48:41.041Z,16.72
2018-11-12T05:51:09.348Z,16.62
2018-11-12T05:53:40.725Z,16.50
2018-11-12T05:56:08.984Z,16.19
2018-11-12T05:58:37.326Z,16.37
2018-11-12T06:01:05.659Z,16.16
2018-11-12T06:03:33.999Z,16.32
2018-11-12T06:06:02.325Z,16.49
2018-11-12T06:08:30.677Z,16.61
2018-11-12T06:10:58.957Z,16.54
2018-11-12T06:13:27.261Z,16.39
2018-11-12T06:15:55.621Z,16.30
2018-11-12T06:18:23.970Z,16.67
2018-11-12T06:20:52.242Z,16.67
2018-11-12T06:23:20.600Z,16.65
2018-11-12T06:25:48.909Z,16.65
2018-11-12T06:28:17.262Z,16.73
2018-11-12T06:30:45.687Z,16.84
2018-11-12T06:33:14.031Z,16.97
2018-11-12T06:35:42.375Z,16.89
2018-11-12T06:38:10.663Z,16.86
2018-11-12T06:40:39.005Z,17.12
2018-11-12T06:43:07.383Z,17.22
2018-11-12T06:45:35.615Z,16.84
2018-11-12T06:48:04.659Z,16.84
2018-11-12T06:50:33.719Z,16.54
2018-11-12T06:53:02.785Z,16.84
2018-11-12T06:55:30.936Z,16.72
2018-11-12T06:57:59.215Z,16.89
2018-11-12T07:00:32.636Z,16.99
2018-11-12T07:03:01.021Z,17.13
2018-11-12T07:05:29.956Z,16.96
2018-11-12T07:07:58.379Z,16.84
2018-11-12T07:10:27.627Z,16.58
2018-11-12T07:12:56.897Z,16.63
2018-11-12T07:15:26.440Z,16.90
2018-11-12T07:17:54.715Z,16.83
2018-11-12T07:20:24.213Z,17.15
2018-11-12T07:22:52.804Z,16.78
2018-11-12T07:25:22.802Z,16.56
2018-11-12T07:27:50.952Z,16.91
2018-11-12T07:30:27.317Z,16.91
2018-11-12T07:33:05.059Z,17.12
2018-11-12T07:35:33.690Z,17.04
2018-11-12T07:38:01.947Z,16.84
2018-11-12T07:40:30.287Z,16.86
2018-11-12T07:42:58.718Z,17.00
2018-11-12T07:45:28.271Z,16.88
2018-11-12T07:47:57.179Z,17.13
2018-11-12T07:50:26.931Z,16.80
2018-11-12T07:52:56.805Z,16.79
2018-11-12T07:55:26.341Z,17.06
2018-11-12T07:57:55.386Z,17.00
2018-11-12T08:00:26.996Z,17.22
2018-11-12T08:03:01.475Z,17.50
2018-11-12T08:05:29.728Z,17.33
2018-11-12T08:07:58.016Z,16.93
2018-11-12T08:10:26.276Z,17.37
2018-11-12T08:12:54.592Z,17.31
2018-11-12T08:15:22.893Z,17.17
2018-11-12T08:17:51.205Z,17.29
2018-11-12T08:20:21.681Z,17.55
2018-11-12T08:22:50.755Z,17.51
2018-11-12T08:25:19.102Z,17.78
2018-11-12T08:27:47.896Z,17.22
2018-11-12T08:30:20.516Z,17.35
2018-11-12T08:32:50.306Z,17.48
2018-11-12T08:35:18.721Z,17.48
2018-11-12T08:37:47.520Z,17.56
2018-11-12T08:40:17.081Z,17.57
2018-11-12T08:42:45.437Z,17.66
2018-11-12T08:45:14.171Z,17.59
2018-11-12T08:47:43.692Z,17.81
2018-11-12T08:50:14.840Z,17.83
2018-11-12T08:52:44.254Z,17.99
2018-11-12T08:55:14.356Z,17.77
2018-11-12T08:57:44.103Z,17.90
2018-11-12T09:00:12.876Z,18.07
2018-11-12T09:02:41.473Z,17.92
2018-11-12T09:05:11.345Z,17.93
2018-11-12T09:07:40.555Z,18.14
2018-11-12T09:10:12.699Z,18.18
2018-11-12T09:12:41.839Z,18.35
2018-11-12T09:15:10.899Z,18.28
2018-11-12T09:17:40.218Z,18.30
2018-11-12T09:20:09.981Z,18.39
2018-11-12T09:22:38.639Z,18.36
2018-11-12T09:25:09.376Z,18.17
2018-11-12T09:27:37.655Z,18.16
2018-11-12T09:30:08.975Z,18.26
2018-11-12T09:32:37.331Z,18.47
2018-11-12T09:35:06.437Z,18.35
2018-11-12T09:40:03.116Z,18.28
2018-11-12T09:42:31.437Z,18.25
2018-11-12T09:44:59.719Z,18.38
2018-11-12T09:47:28.110Z,18.49
2018-11-12T09:49:56.429Z,18.50
2018-11-12T09:52:24.743Z,18.48
2018-11-12T09:54:53.169Z,18.44
2018-11-12T09:57:21.588Z,18.50
2018-11-12T09:59:49.915Z,18.63
2018-11-12T10:02:19.108Z,18.69
2018-11-12T10:04:47.758Z,18.70
2018-11-12T10:07:16.386Z,18.76
2018-11-12T10:09:45.844Z,18.78
2018-11-12T10:12:14.881Z,18.80
2018-11-12T10:14:42.991Z,18.68
2018-11-12T10:17:10.778Z,18.79
2018-11-12T10:19:36.582Z,18.90
2018-11-12T10:22:04.932Z,18.99
2018-11-12T10:24:33.212Z,18.96
2018-11-12T10:27:01.534Z,19.04
2018-11-12T10:29:29.855Z,19.01
2018-11-12T10:31:58.172Z,19.20
2018-11-12T10:34:26.456Z,19.38
2018-11-12T10:36:54.784Z,19.12
2018-11-12T10:39:23.138Z,19.27
2018-11-12T10:41:51.483Z,19.32
2018-11-12T10:44:19.857Z,19.45
2018-11-12T10:46:48.204Z,19.39
2018-11-12T10:49:16.571Z,19.30
2018-11-12T10:51:44.987Z,19.42
2018-11-12T10:54:13.488Z,19.49
2018-11-12T10:56:41.801Z,19.50
2018-11-12T10:59:10.129Z,19.35
2018-11-12T11:01:43.607Z,19.43
2018-11-12T11:04:17.105Z,19.63
2018-11-12T11:06:45.440Z,19.36
2018-11-12T11:09:13.772Z,19.41
2018-11-12T11:11:42.056Z,19.36
2018-11-12T11:14:10.432Z,19.19
2018-11-12T11:16:38.720Z,19.21
2018-11-12T11:19:07.758Z,19.15
2018-11-12T11:21:36.059Z,19.28
2018-11-12T11:24:04.504Z,19.35
2018-11-12T11:26:32.822Z,19.14
2018-11-12T11:29:01.088Z,19.33
2018-11-12T11:31:29.469Z,19.55
2018-11-12T11:33:57.893Z,19.61
2018-11-12T11:36:26.381Z,19.38
2018-11-12T11:38:54.942Z,19.56
2018-11-12T11:41:23.280Z,19.62
2018-11-12T11:43:51.757Z,19.51
2018-11-12T11:46:20.565Z,19.43
2018-11-12T11:48:50.653Z,19.36
2018-11-12T11:51:18.955Z,19.45
2018-11-12T11:53:47.400Z,19.41
2018-11-12T11:56:15.805Z,19.09
2018-11-12T11:58:44.239Z,19.19
2018-11-12T12:01:12.600Z,19.22
2018-11-12T12:03:40.905Z,19.09
2018-11-12T12:06:09.324Z,19.21
2018-11-12T12:08:37.721Z,19.27
2018-11-12T12:11:06.156Z,19.21
2018-11-12T12:13:34.636Z,19.19
2018-11-12T12:16:03.316Z,19.23
2018-11-12T12:18:31.707Z,18.86
2018-11-12T12:21:00.084Z,19.19
2018-11-12T12:23:28.415Z,19.12
2018-11-12T12:25:56.868Z,19.13
2018-11-12T12:28:25.267Z,18.83
2018-11-12T12:30:53.539Z,19.10
2018-11-12T12:33:21.922Z,19.42
2018-11-12T12:35:50.287Z,19.18
2018-11-12T12:38:18.628Z,19.26
2018-11-12T12:40:47.051Z,19.15
2018-11-12T12:43:15.448Z,19.06
2018-11-12T12:45:44.183Z,18.95
2018-11-12T12:48:12.312Z,18.88
2018-11-12T12:50:40.744Z,19.15
2018-11-12T12:53:09.086Z,19.33
2018-11-12T12:55:37.675Z,19.22
2018-11-12T12:58:06.106Z,19.24
2018-11-12T13:00:34.596Z,20.23
2018-11-12T13:03:03.733Z,19.91
2018-11-12T13:05:32.022Z,20.43
2018-11-12T13:08:00.354Z,19.85
2018-11-12T13:10:28.846Z,19.75
2018-11-12T13:12:57.203Z,19.99
2018-11-12T13:15:25.493Z,21.85
2018-11-12T13:17:53.872Z,23.47
2018-11-12T13:20:23.664Z,24.59
2018-11-12T13:22:51.967Z,22.34
2018-11-12T13:25:20.267Z,23.00
2018-11-12T13:27:49.205Z,22.17
2018-11-12T13:30:19.777Z,22.60
2018-11-12T13:32:48.331Z,24.51
2018-11-12T13:35:19.757Z,23.55
2018-11-12T13:37:48.104Z,22.42
2018-11-12T13:40:18.946Z,23.37
2018-11-12T13:42:48.829Z,25.07
2018-11-12T13:45:17.241Z,23.60
2018-11-12T13:47:46.126Z,24.27
2018-11-12T13:50:17.806Z,24.22
2018-11-12T13:52:49.832Z,24.96
2018-11-12T13:55:19.232Z,23.87
2018-11-12T13:57:47.643Z,23.55
2018-11-12T14:00:17.358Z,22.74
2018-11-12T14:02:46.699Z,22.30
2018-11-12T14:05:16.453Z,22.15
2018-11-12T14:07:45.349Z,22.14
2018-11-12T14:10:14.896Z,22.19
2018-11-12T14:12:43.813Z,22.00
2018-11-12T14:15:14.850Z,21.94
2018-11-12T14:17:43.431Z,21.75
2018-11-12T14:20:11.882Z,21.76
2018-11-12T14:22:40.378Z,21.90
2018-11-12T14:25:10.105Z,21.80
2018-11-12T14:27:38.549Z,21.92
2018-11-12T14:30:08.116Z,21.70
2018-11-12T14:32:36.429Z,21.54
2018-11-12T14:35:06.126Z,21.53
2018-11-12T14:37:34.826Z,21.56
2018-11-12T14:40:03.201Z,21.26
2018-11-12T14:42:31.596Z,21.40
2018-11-12T14:44:59.967Z,21.40
2018-11-12T14:47:28.333Z,21.22
2018-11-12T14:49:56.715Z,21.41
2018-11-12T14:52:25.099Z,21.47
2018-11-12T14:54:53.473Z,21.43
2018-11-12T14:57:21.744Z,21.38
2018-11-12T14:59:50.015Z,21.43
2018-11-12T15:02:18.352Z,21.38
2018-11-12T15:04:46.756Z,21.34
2018-11-12T15:07:15.231Z,21.48
2018-11-12T15:09:43.688Z,21.40
2018-11-12T15:12:12.020Z,21.18
2018-11-12T15:14:40.418Z,21.10
2018-11-12T15:17:08.717Z,21.21
2018-11-12T15:19:37.229Z,21.12
2018-11-12T15:22:05.784Z,21.27
2018-11-12T15:24:34.644Z,21.07
2018-11-12T15:27:03.399Z,21.24
2018-11-12T15:29:31.889Z,21.07
2018-11-12T15:32:00.196Z,20.97
2018-11-12T15:34:28.623Z,20.97
2018-11-12T15:36:57.144Z,20.69
2018-11-12T15:39:25.515Z,20.82
2018-11-12T15:41:53.900Z,20.83
2018-11-12T15:44:22.262Z,20.71
2018-11-12T15:46:50.737Z,20.90
2018-11-12T15:49:19.234Z,20.68
2018-11-12T15:51:47.627Z,20.74
2018-11-12T15:54:16.295Z,20.72
2018-11-12T15:56:44.681Z,20.61
2018-11-12T15:59:13.045Z,20.57
2018-11-12T16:01:41.505Z,20.63
2018-11-12T16:04:09.920Z,20.64
2018-11-12T16:06:38.395Z,20.62
2018-11-12T16:09:10.395Z,20.53
2018-11-12T16:11:38.776Z,20.65
2018-11-12T16:14:07.548Z,20.59
2018-11-12T16:16:36.109Z,20.59
2018-11-12T16:19:04.504Z,20.51
2018-11-12T16:21:32.920Z,20.54
2018-11-12T16:24:01.247Z,20.84
2018-11-12T16:26:29.668Z,20.48
2018-11-12T16:28:58.245Z,20.41
2018-11-12T16:31:36.977Z,20.44
2018-11-12T16:34:05.524Z,20.47
2018-11-12T16:36:34.001Z,20.55
2018-11-12T16:39:02.417Z,20.38
2018-11-12T16:41:30.816Z,20.46
2018-11-12T16:43:59.672Z,20.33
2018-11-12T16:46:28.108Z,20.27
2018-11-12T16:48:56.757Z,20.41
2018-11-12T16:51:25.170Z,20.36
2018-11-12T16:53:53.631Z,20.31
2018-11-12T16:56:21.975Z,20.36
2018-11-12T16:58:50.485Z,20.19
2018-11-12T17:01:18.824Z,19.24
2018-11-12T17:03:47.309Z,19.06
2018-11-12T17:06:15.796Z,19.22
2018-11-12T17:08:44.161Z,19.26
2018-11-12T17:11:12.593Z,19.18
2018-11-12T17:13:40.892Z,19.10
2018-11-12T17:16:09.361Z,19.02
2018-11-12T17:18:37.785Z,19.03
2018-11-12T17:21:06.274Z,18.99
2018-11-12T17:23:34.639Z,19.18
2018-11-12T17:26:02.948Z,19.00
2018-11-12T17:28:31.291Z,19.25
2018-11-12T17:30:59.745Z,19.11
2018-11-12T17:33:27.971Z,19.22
2018-11-12T17:35:56.333Z,19.25
2018-11-12T17:38:24.787Z,19.25
2018-11-12T17:40:53.176Z,18.71
2018-11-12T17:43:21.551Z,19.29
2018-11-12T17:45:49.861Z,19.26
2018-11-12T17:48:18.264Z,19.27
2018-11-12T17:50:46.598Z,19.12
2018-11-12T17:53:14.947Z,19.39
2018-11-12T17:55:43.306Z,19.35
2018-11-12T17:58:12.458Z,19.28
2018-11-12T18:00:40.921Z,19.06
2018-11-12T18:03:09.385Z,19.01
2018-11-12T18:05:37.745Z,19.03
2018-11-12T18:08:06.264Z,18.72
2018-11-12T18:10:34.587Z,18.58
2018-11-12T18:13:03.057Z,18.91
2018-11-12T18:15:31.426Z,18.71
2018-11-12T18:17:59.815Z,18.71
2018-11-12T18:20:28.616Z,18.90
2018-11-12T18:22:57.639Z,18.94
2018-11-12T18:25:26.070Z,18.89
2018-11-12T18:27:55.058Z,18.82
2018-11-12T18:30:25.090Z,18.63
2018-11-12T18:32:54.557Z,18.88
2018-11-12T18:35:22.932Z,18.60
2018-11-12T18:37:51.286Z,18.70
2018-11-12T18:40:21.047Z,19.03
2018-11-12T18:42:49.734Z,19.04
2018-11-12T18:45:19.583Z,19.11
2018-11-12T18:47:47.972Z,19.05
2018-11-12T18:50:19.594Z,19.20
2018-11-12T18:52:48.070Z,18.84
2018-11-12T18:55:16.440Z,18.73
2018-11-12T18:57:45.536Z,18.61
2018-11-12T19:00:15.533Z,18.69
2018-11-12T19:02:44.009Z,18.89
2018-11-12T19:05:14.314Z,18.88
2018-11-12T19:07:43.365Z,18.66
2018-11-12T19:10:14.606Z,18.80
2018-11-12T19:12:43.671Z,18.54
2018-11-12T19:15:14.451Z,18.94
2018-11-12T19:17:43.797Z,18.66
2018-11-12T19:20:12.216Z,18.85
2018-11-12T19:22:40.603Z,18.64
2018-11-12T19:25:09.971Z,18.69
2018-11-12T19:27:38.369Z,18.95
2018-11-12T19:30:10.299Z,18.70
2018-11-12T19:32:38.772Z,18.75
2018-11-12T19:35:08.565Z,18.63
2018-11-12T19:37:36.963Z,18.78
2018-11-12T19:40:06.589Z,18.64
2018-11-12T19:42:34.955Z,18.90
2018-11-12T19:45:03.559Z,18.67
2018-11-12T19:47:31.834Z,18.54
2018-11-12T19:50:00.175Z,18.76
2018-11-12T19:52:28.648Z,18.68
2018-11-12T19:54:57.035Z,18.52
2018-11-12T19:57:25.791Z,18.63
2018-11-12T19:59:54.158Z,18.66
2018-11-12T20:02:22.550Z,18.50
2018-11-12T20:04:50.936Z,18.58
2018-11-12T20:07:19.515Z,18.72
2018-11-12T20:09:48.114Z,18.59
2018-11-12T20:12:16.448Z,18.63
2018-11-12T20:14:44.773Z,18.87
2018-11-12T20:17:13.118Z,18.62
2018-11-12T20:19:41.480Z,18.44
2018-11-12T20:22:09.847Z,18.49
2018-11-12T20:24:38.211Z,18.62
2018-11-12T20:27:06.612Z,18.65
2018-11-12T20:29:35.023Z,18.56
2018-11-12T20:32:03.423Z,18.59
2018-11-12T20:34:31.823Z,18.41
2018-11-12T20:37:00.256Z,18.38
2018-11-12T20:39:28.757Z,18.49
2018-11-12T20:41:57.135Z,18.40
2018-11-12T20:44:25.690Z,18.45
2018-11-12T20:46:54.090Z,18.26
2018-11-12T20:49:22.453Z,18.36
2018-11-12T20:51:50.800Z,18.39
2018-11-12T20:54:19.228Z,18.13
2018-11-12T20:56:47.543Z,18.55
2018-11-12T20:59:15.879Z,18.65
2018-11-12T21:01:44.344Z,18.60
2018-11-12T21:04:12.749Z,18.43
2018-11-12T21:06:41.156Z,18.42
2018-11-12T21:09:12.496Z,18.38
2018-11-12T21:11:40.958Z,18.46
2018-11-12T21:14:09.386Z,18.62
2018-11-12T21:16:38.408Z,18.38
2018-11-12T21:19:07.626Z,18.22
2018-11-12T21:21:35.915Z,18.33
2018-11-12T21:24:04.265Z,18.70
2018-11-12T21:26:32.710Z,18.69
2018-11-12T21:29:01.098Z,18.67
2018-11-12T21:31:29.452Z,18.35
2018-11-12T21:33:58.965Z,18.67
2018-11-12T21:36:27.384Z,18.63
2018-11-12T21:38:55.955Z,18.47
2018-11-12T21:41:24.311Z,18.54
2018-11-12T21:43:52.924Z,18.39
2018-11-12T21:46:21.120Z,18.40
2018-11-12T21:48:49.525Z,18.52
2018-11-12T21:51:17.830Z,18.86
2018-11-12T21:53:46.218Z,18.39
2018-11-12T21:56:14.577Z,18.16
2018-11-12T21:58:42.972Z,18.44
2018-11-12T22:01:11.283Z,18.29
2018-11-12T22:03:39.612Z,18.45
2018-11-12T22:06:07.912Z,18.23
2018-11-12T22:08:36.329Z,18.47
2018-11-12T22:11:04.650Z,18.32
2018-11-12T22:13:32.990Z,18.18
2018-11-12T22:16:01.285Z,18.29
2018-11-12T22:18:29.730Z,18.49
2018-11-12T22:20:58.078Z,18.08
2018-11-12T22:23:26.421Z,18.26
2018-11-12T22:25:54.748Z,18.16
2018-11-12T22:28:23.196Z,18.45
2018-11-12T22:30:51.420Z,18.34
2018-11-12T22:33:19.780Z,18.21
2018-11-12T22:35:48.097Z,18.38
2018-11-12T22:38:16.407Z,18.39
2018-11-12T22:40:45.282Z,18.09
2018-11-12T22:43:13.645Z,18.28
2018-11-12T22:45:42.036Z,18.45
2018-11-12T22:48:10.335Z,18.07
2018-11-12T22:50:38.708Z,18.19
2018-11-12T22:53:07.082Z,17.99
2018-11-12T22:55:35.552Z,17.29
2018-11-12T22:58:03.961Z,17.63
2018-11-12T23:00:38.284Z,18.06
2018-11-12T23:03:07.316Z,17.88
2018-11-12T23:05:35.718Z,17.74
2018-11-12T23:08:04.123Z,17.78
2018-11-12T23:10:32.524Z,17.63
2018-11-12T23:13:00.853Z,17.68
2018-11-12T23:15:29.185Z,17.49
2018-11-12T23:17:57.536Z,17.67
2018-11-12T23:20:27.525Z,17.38
2018-11-12T23:22:55.890Z,17.08
2018-11-12T23:25:24.408Z,18.79
2018-11-12T23:27:53.358Z,21.75
2018-11-12T23:30:22.880Z,17.70
2018-11-12T23:32:51.227Z,18.05
2018-11-12T23:35:22.120Z,18.20
2018-11-12T23:37:50.807Z,17.86
2018-11-12T23:40:19.258Z,17.63
2018-11-12T23:42:47.962Z,17.73
2018-11-12T23:45:16.255Z,17.28
2018-11-12T23:47:44.621Z,17.24
2018-11-12T23:50:16.198Z,17.41
2018-11-12T23:52:45.316Z,17.48
2018-11-12T23:55:14.092Z,17.78
2018-11-12T23:57:42.763Z,17.55
